Ourolandia, Brazil
Current Conditions -  °F | °C
As of 2:00 PM on Sunday 21 Dec 2014 (Local Time) from SBPL Reporting Station
Broken Clouds Broken Clouds  
Wind Chill: 91°   Ceiling: 4000
Heat Index: 100°   Visibility: 6mi
Dew Point: 73°   Wind: 8mph
Humidity: 55%   Direction: 170°S
Pressure: 29.91"   Gusts: NA
Location:  10.97°S, 41.08°W
Report Text: SBPL 211700Z 17007KT 9999 BKN040 33/23 Q1013
Loading
Personal Weather Stations






























Interactive Weather Map New forecast layout! Learn more

10-Day Weather Forecast

Advertisements
Track Severe Weather on mobile